sensor_id;sensor_type;location;lat;lon;timestamp;pressure;altitude;pressure_sealevel;temperature;humidity
10806;BME280;5455;53.224;6.000;2023-03-11T00:00:26;100523.59;;;1.17;100.00
10806;BME280;5455;53.224;6.000;2023-03-11T00:02:55;100531.22;;;1.15;100.00
10806;BME280;5455;53.224;6.000;2023-03-11T00:05:28;100534.84;;;1.10;100.00
10806;BME280;5455;53.224;6.000;2023-03-11T00:07:56;100539.78;;;1.08;100.00
10806;BME280;5455;53.224;6.000;2023-03-11T00:10:25;100534.25;;;1.13;100.00
10806;BME280;5455;53.224;6.000;2023-03-11T00:12:56;100541.09;;;1.10;100.00
10806;BME280;5455;53.224;6.000;2023-03-11T00:15:24;100544.09;;;1.09;100.00
10806;BME280;5455;53.224;6.000;2023-03-11T00:17:51;100544.00;;;1.14;100.00
10806;BME280;5455;53.224;6.000;2023-03-11T00:20:30;100545.91;;;1.14;100.00
10806;BME280;5455;53.224;6.000;2023-03-11T00:22:57;100554.06;;;1.14;100.00
10806;BME280;5455;53.224;6.000;2023-03-11T00:25:28;100559.56;;;1.08;100.00
10806;BME280;5455;53.224;6.000;2023-03-11T00:27:55;100563.22;;;1.04;100.00
10806;BME280;5455;53.224;6.000;2023-03-11T00:30:24;100563.22;;;1.04;100.00
10806;BME280;5455;53.224;6.000;2023-03-11T00:32:53;100574.56;;;1.06;100.00
10806;BME280;5455;53.224;6.000;2023-03-11T00:35:23;100580.31;;;1.04;100.00
10806;BME280;5455;53.224;6.000;2023-03-11T00:37:54;100578.06;;;1.06;100.00
10806;BME280;5455;53.224;6.000;2023-03-11T00:40:23;100579.97;;;1.06;100.00
10806;BME280;5455;53.224;6.000;2023-03-11T00:42:53;100581.88;;;1.05;100.00
10806;BME280;5455;53.224;6.000;2023-03-11T00:45:21;100590.94;;;1.01;100.00
10806;BME280;5455;53.224;6.000;2023-03-11T00:47:50;100589.25;;;1.05;100.00
10806;BME280;5455;53.224;6.000;2023-03-11T00:50:23;100595.28;;;1.02;100.00
10806;BME280;5455;53.224;6.000;2023-03-11T00:52:52;100598.41;;;0.95;100.00
10806;BME280;5455;53.224;6.000;2023-03-11T00:55:27;100597.88;;;0.93;100.00
10806;BME280;5455;53.224;6.000;2023-03-11T00:57:58;100598.41;;;0.95;100.00
10806;BME280;5455;53.224;6.000;2023-03-11T01:00:30;100593.47;;;0.97;100.00
10806;BME280;5455;53.224;6.000;2023-03-11T01:02:58;100602.63;;;1.01;100.00
10806;BME280;5455;53.224;6.000;2023-03-11T01:05:28;100600.41;;;1.03;100.00
10806;BME280;5455;53.224;6.000;2023-03-11T01:07:56;100601.81;;;1.01;100.00
10806;BME280;5455;53.224;6.000;2023-03-11T01:10:26;100610.16;;;1.04;100.00
10806;BME280;5455;53.224;6.000;2023-03-11T01:12:53;100612.28;;;1.07;100.00
10806;BME280;5455;53.224;6.000;2023-03-11T01:15:27;100617.97;;;1.06;100.00
10806;BME280;5455;53.224;6.000;2023-03-11T01:17:55;100623.63;;;1.09;100.00
10806;BME280;5455;53.224;6.000;2023-03-11T01:20:22;100624.13;;;1.11;100.00
10806;BME280;5455;53.224;6.000;2023-03-11T01:22:49;100631.16;;;1.13;100.00
10806;BME280;5455;53.224;6.000;2023-03-11T01:25:18;100634.97;;;1.11;100.00
10806;BME280;5455;53.224;6.000;2023-03-11T01:27:45;100632.78;;;1.14;100.00
10806;BME280;5455;53.224;6.000;2023-03-11T01:30:17;100640.94;;;1.14;100.00
10806;BME280;5455;53.224;6.000;2023-03-11T01:32:44;100635.56;;;1.08;100.00
10806;BME280;5455;53.224;6.000;2023-03-11T01:35:14;100640.91;;;1.00;100.00
10806;BME280;5455;53.224;6.000;2023-03-11T01:37:41;100647.03;;;0.92;100.00
10806;BME280;5455;53.224;6.000;2023-03-11T01:40:17;100642.38;;;0.79;100.00
10806;BME280;5455;53.224;6.000;2023-03-11T01:42:45;100643.19;;;0.79;100.00
10806;BME280;5455;53.224;6.000;2023-03-11T01:45:28;100642.75;;;0.72;100.00
10806;BME280;5455;53.224;6.000;2023-03-11T01:47:57;100645.28;;;0.69;100.00
10806;BME280;5455;53.224;6.000;2023-03-11T01:50:26;100644.16;;;0.70;100.00
10806;BME280;5455;53.224;6.000;2023-03-11T01:52:53;100651.00;;;0.67;100.00
10806;BME280;5455;53.224;6.000;2023-03-11T01:55:20;100649.19;;;0.63;100.00
10806;BME280;5455;53.224;6.000;2023-03-11T01:57:48;100653.00;;;0.62;100.00
10806;BME280;5455;53.224;6.000;2023-03-11T02:00:17;100654.91;;;0.61;100.00
10806;BME280;5455;53.224;6.000;2023-03-11T02:02:53;100653.81;;;0.62;100.00
10806;BME280;5455;53.224;6.000;2023-03-11T02:05:22;100655.22;;;0.60;100.00
10806;BME280;5455;53.224;6.000;2023-03-11T02:07:52;100656.78;;;0.47;100.00
10806;BME280;5455;53.224;6.000;2023-03-11T02:10:24;100659.88;;;0.40;100.00
10806;BME280;5455;53.224;6.000;2023-03-11T02:12:53;100652.09;;;0.34;100.00
10806;BME280;5455;53.224;6.000;2023-03-11T02:15:24;100655.19;;;0.27;100.00
10806;BME280;5455;53.224;6.000;2023-03-11T02:17:51;100652.88;;;0.21;100.00
10806;BME280;5455;53.224;6.000;2023-03-11T02:20:39;100657.72;;;0.24;100.00
10806;BME280;5455;53.224;6.000;2023-03-11T02:23:13;100663.25;;;0.32;100.00
10806;BME280;5455;53.224;6.000;2023-03-11T02:25:50;100661.28;;;0.38;100.00
10806;BME280;5455;53.224;6.000;2023-03-11T02:28:20;100661.41;;;0.46;100.00
10806;BME280;5455;53.224;6.000;2023-03-11T02:30:49;100661.50;;;0.55;100.00
10806;BME280;5455;53.224;6.000;2023-03-11T02:33:18;100667.06;;;0.64;100.00
10806;BME280;5455;53.224;6.000;2023-03-11T02:35:46;100666.41;;;0.72;100.00
10806;BME280;5455;53.224;6.000;2023-03-11T02:38:14;100666.19;;;0.68;100.00
10806;BME280;5455;53.224;6.000;2023-03-11T02:40:51;100665.16;;;0.64;100.00
10806;BME280;5455;53.224;6.000;2023-03-11T02:43:30;100664.22;;;0.55;100.00
10806;BME280;5455;53.224;6.000;2023-03-11T02:46:00;100658.19;;;0.44;100.00
10806;BME280;5455;53.224;6.000;2023-03-11T02:48:28;100661.13;;;0.29;100.00
10806;BME280;5455;53.224;6.000;2023-03-11T02:50:56;100658.06;;;0.17;100.00
10806;BME280;5455;53.224;6.000;2023-03-11T02:53:25;100667.16;;;0.08;100.00
10806;BME280;5455;53.224;6.000;2023-03-11T02:55:54;100666.22;;;-0.02;100.00
10806;BME280;5455;53.224;6.000;2023-03-11T02:58:21;100666.22;;;-0.02;100.00
10806;BME280;5455;53.224;6.000;2023-03-11T03:00:48;100666.28;;;-0.07;100.00
10806;BME280;5455;53.224;6.000;2023-03-11T03:03:17;100668.53;;;-0.14;100.00
10806;BME280;5455;53.224;6.000;2023-03-11T03:05:45;100680.78;;;-0.16;100.00
10806;BME280;5455;53.224;6.000;2023-03-11T03:08:12;100681.81;;;-0.12;100.00
10806;BME280;5455;53.224;6.000;2023-03-11T03:10:40;100676.09;;;-0.11;100.00
10806;BME280;5455;53.224;6.000;2023-03-11T03:13:07;100678.44;;;-0.04;100.00
10806;BME280;5455;53.224;6.000;2023-03-11T03:15:34;100679.47;;;0.00;100.00
10806;BME280;5455;53.224;6.000;2023-03-11T03:18:01;100683.56;;;-0.03;100.00
10806;BME280;5455;53.224;6.000;2023-03-11T03:20:28;100680.56;;;-0.01;100.00
10806;BME280;5455;53.224;6.000;2023-03-11T03:22:58;100688.19;;;-0.03;100.00
10806;BME280;5455;53.224;6.000;2023-03-11T03:25:28;100688.91;;;0.03;100.00
10806;BME280;5455;53.224;6.000;2023-03-11T03:27:58;100687.31;;;0.02;100.00
10806;BME280;5455;53.224;6.000;2023-03-11T03:30:25;100695.22;;;-0.02;100.00
10806;BME280;5455;53.224;6.000;2023-03-11T03:32:55;100683.94;;;-0.09;100.00
10806;BME280;5455;53.224;6.000;2023-03-11T03:35:22;100694.47;;;-0.08;100.00
10806;BME280;5455;53.224;6.000;2023-03-11T03:38:01;100704.50;;;-0.08;100.00
10806;BME280;5455;53.224;6.000;2023-03-11T03:40:28;100704.97;;;-0.01;100.00
10806;BME280;5455;53.224;6.000;2023-03-11T03:42:57;100707.94;;;-0.03;100.00
10806;BME280;5455;53.224;6.000;2023-03-11T03:45:25;100717.53;;;-0.10;100.00
10806;BME280;5455;53.224;6.000;2023-03-11T03:47:52;100718.78;;;-0.21;100.00
10806;BME280;5455;53.224;6.000;2023-03-11T03:50:22;100731.28;;;-0.25;100.00
10806;BME280;5455;53.224;6.000;2023-03-11T03:52:51;100738.91;;;-0.27;100.00
10806;BME280;5455;53.224;6.000;2023-03-11T03:55:20;100739.13;;;-0.47;100.00
10806;BME280;5455;53.224;6.000;2023-03-11T03:57:47;100737.53;;;-0.72;100.00
10806;BME280;5455;53.224;6.000;2023-03-11T04:00:16;100747.50;;;-0.96;100.00
10806;BME280;5455;53.224;6.000;2023-03-11T04:02:47;100741.03;;;-1.00;100.00
10806;BME280;5455;53.224;6.000;2023-03-11T04:05:23;100749.84;;;-1.19;100.00
10806;BME280;5455;53.224;6.000;2023-03-11T04:07:53;100740.81;;;-1.38;100.00
10806;BME280;5455;53.224;6.000;2023-03-11T04:10:21;100744.16;;;-1.51;100.00
10806;BME280;5455;53.224;6.000;2023-03-11T04:12:49;100749.63;;;-1.61;100.00
10806;BME280;5455;53.224;6.000;2023-03-11T04:15:16;100746.22;;;-1.72;100.00
10806;BME280;5455;53.224;6.000;2023-03-11T04:17:43;100756.25;;;-1.82;100.00
10806;BME280;5455;53.224;6.000;2023-03-11T04:20:11;100755.53;;;-1.93;100.00
10806;BME280;5455;53.224;6.000;2023-03-11T04:22:41;100757.44;;;-1.98;100.00
10806;BME280;5455;53.224;6.000;2023-03-11T04:25:08;100763.41;;;-2.06;100.00
10806;BME280;5455;53.224;6.000;2023-03-11T04:27:36;100763.16;;;-2.10;100.00
10806;BME280;5455;53.224;6.000;2023-03-11T04:30:05;100753.22;;;-2.25;100.00
10806;BME280;5455;53.224;6.000;2023-03-11T04:32:33;100762.94;;;-2.24;100.00
10806;BME280;5455;53.224;6.000;2023-03-11T04:35:02;100763.75;;;-2.28;100.00
10806;BME280;5455;53.224;6.000;2023-03-11T04:37:30;100765.16;;;-2.36;100.00
10806;BME280;5455;53.224;6.000;2023-03-11T04:39:57;100773.50;;;-2.37;100.00
10806;BME280;5455;53.224;6.000;2023-03-11T04:42:24;100776.75;;;-2.40;100.00
10806;BME280;5455;53.224;6.000;2023-03-11T04:44:51;100771.94;;;-2.48;100.00
10806;BME280;5455;53.224;6.000;2023-03-11T04:47:19;100783.56;;;-2.58;100.00
10806;BME280;5455;53.224;6.000;2023-03-11T04:49:47;100784.09;;;-2.61;100.00
10806;BME280;5455;53.224;6.000;2023-03-11T04:52:15;100780.34;;;-2.65;100.00
10806;BME280;5455;53.224;6.000;2023-03-11T04:54:42;100786.00;;;-2.66;100.00
10806;BME280;5455;53.224;6.000;2023-03-11T04:57:09;100788.44;;;-2.70;100.00
10806;BME280;5455;53.224;6.000;2023-03-11T04:59:40;100786.84;;;-2.76;100.00
10806;BME280;5455;53.224;6.000;2023-03-11T05:02:07;100790.88;;;-2.79;100.00
10806;BME280;5455;53.224;6.000;2023-03-11T05:04:41;100791.16;;;-2.85;100.00
10806;BME280;5455;53.224;6.000;2023-03-11T05:07:08;100791.69;;;-2.88;100.00
10806;BME280;5455;53.224;6.000;2023-03-11T05:09:36;100796.31;;;-2.89;100.00
10806;BME280;5455;53.224;6.000;2023-03-11T05:12:03;100794.94;;;-2.91;100.00
10806;BME280;5455;53.224;6.000;2023-03-11T05:14:33;100793.59;;;-2.94;100.00
10806;BME280;5455;53.224;6.000;2023-03-11T05:17:00;100791.19;;;-2.95;100.00
10806;BME280;5455;53.224;6.000;2023-03-11T05:19:27;100794.97;;;-2.96;100.00
10806;BME280;5455;53.224;6.000;2023-03-11T05:22:01;100790.41;;;-3.01;100.00
10806;BME280;5455;53.224;6.000;2023-03-11T05:24:29;100797.94;;;-3.08;100.00
10806;BME280;5455;53.224;6.000;2023-03-11T05:26:57;100800.34;;;-3.11;100.00
10806;BME280;5455;53.224;6.000;2023-03-11T05:29:25;100802.25;;;-3.17;100.00
10806;BME280;5455;53.224;6.000;2023-03-11T05:31:52;100799.28;;;-3.20;100.00
10806;BME280;5455;53.224;6.000;2023-03-11T05:34:19;100807.66;;;-3.22;100.00
10806;BME280;5455;53.224;6.000;2023-03-11T05:36:47;100801.16;;;-3.26;100.00
10806;BME280;5455;53.224;6.000;2023-03-11T05:39:14;100808.44;;;-3.31;100.00
10806;BME280;5455;53.224;6.000;2023-03-11T05:41:42;100806.00;;;-3.33;100.00
10806;BME280;5455;53.224;6.000;2023-03-11T05:44:09;100810.59;;;-3.33;100.00
10806;BME280;5455;53.224;6.000;2023-03-11T05:46:36;100809.50;;;-3.38;100.00
10806;BME280;5455;53.224;6.000;2023-03-11T05:49:05;100807.88;;;-3.39;100.00
10806;BME280;5455;53.224;6.000;2023-03-11T05:51:32;100807.34;;;-3.36;100.00
10806;BME280;5455;53.224;6.000;2023-03-11T05:53:59;100811.09;;;-3.42;100.00
10806;BME280;5455;53.224;6.000;2023-03-11T05:56:34;100816.50;;;-3.42;100.00
10806;BME280;5455;53.224;6.000;2023-03-11T05:59:02;100825.94;;;-3.44;100.00
10806;BME280;5455;53.224;6.000;2023-03-11T06:01:32;100824.06;;;-3.49;100.00
10806;BME280;5455;53.224;6.000;2023-03-11T06:03:59;100825.91;;;-3.54;100.00
10806;BME280;5455;53.224;6.000;2023-03-11T06:06:27;100832.91;;;-3.48;100.00
10806;BME280;5455;53.224;6.000;2023-03-11T06:08:54;100835.38;;;-3.52;100.00
10806;BME280;5455;53.224;6.000;2023-03-11T06:11:25;100835.38;;;-3.47;100.00
10806;BME280;5455;53.224;6.000;2023-03-11T06:13:54;100841.56;;;-3.46;100.00
10806;BME280;5455;53.224;6.000;2023-03-11T06:16:24;100849.09;;;-3.48;100.00
10806;BME280;5455;53.224;6.000;2023-03-11T06:18:53;100855.28;;;-3.48;100.00
10806;BME280;5455;53.224;6.000;2023-03-11T06:21:22;100855.81;;;-3.51;100.00
10806;BME280;5455;53.224;6.000;2023-03-11T06:23:49;100865.00;;;-3.52;100.00
10806;BME280;5455;53.224;6.000;2023-03-11T06:26:19;100868.75;;;-3.48;100.00
10806;BME280;5455;53.224;6.000;2023-03-11T06:28:47;100868.75;;;-3.48;100.00
10806;BME280;5455;53.224;6.000;2023-03-11T06:31:17;100872.56;;;-3.49;100.00
10806;BME280;5455;53.224;6.000;2023-03-11T06:33:46;100877.13;;;-3.44;100.00
10806;BME280;5455;53.224;6.000;2023-03-11T06:36:16;100868.28;;;-3.40;100.00
10806;BME280;5455;53.224;6.000;2023-03-11T06:38:43;100873.13;;;-3.31;100.00
10806;BME280;5455;53.224;6.000;2023-03-11T06:41:14;100880.69;;;-3.28;100.00
10806;BME280;5455;53.224;6.000;2023-03-11T06:43:42;100882.31;;;-3.22;100.00
10806;BME280;5455;53.224;6.000;2023-03-11T06:46:16;100894.19;;;-3.13;100.00
10806;BME280;5455;53.224;6.000;2023-03-11T06:48:45;100897.41;;;-3.06;100.00
10806;BME280;5455;53.224;6.000;2023-03-11T06:51:14;100890.97;;;-2.95;100.00
10806;BME280;5455;53.224;6.000;2023-03-11T06:53:42;100886.38;;;-2.90;100.00
10806;BME280;5455;53.224;6.000;2023-03-11T06:56:12;100903.13;;;-2.83;100.00
10806;BME280;5455;53.224;6.000;2023-03-11T06:58:44;100900.97;;;-2.70;100.00
10806;BME280;5455;53.224;6.000;2023-03-11T07:01:15;100900.94;;;-2.60;100.00
10806;BME280;5455;53.224;6.000;2023-03-11T07:03:45;100909.03;;;-2.45;100.00
10806;BME280;5455;53.224;6.000;2023-03-11T07:06:15;100914.72;;;-2.32;100.00
10806;BME280;5455;53.224;6.000;2023-03-11T07:08:42;100903.88;;;-2.22;100.00
10806;BME280;5455;53.224;6.000;2023-03-11T07:11:17;100910.88;;;-2.15;100.00
10806;BME280;5455;53.224;6.000;2023-03-11T07:13:48;100914.38;;;-2.05;100.00
10806;BME280;5455;53.224;6.000;2023-03-11T07:16:19;100918.16;;;-1.96;100.00
10806;BME280;5455;53.224;6.000;2023-03-11T07:18:49;100921.09;;;-1.87;100.00
10806;BME280;5455;53.224;6.000;2023-03-11T07:21:20;100921.84;;;-1.77;100.00
10806;BME280;5455;53.224;6.000;2023-03-11T07:23:52;100935.91;;;-1.75;100.00
10806;BME280;5455;53.224;6.000;2023-03-11T07:26:20;100921.03;;;-1.72;100.00
10806;BME280;5455;53.224;6.000;2023-03-11T07:28:47;100930.19;;;-1.63;100.00
10806;BME280;5455;53.224;6.000;2023-03-11T07:31:29;100944.75;;;-1.54;100.00
10806;BME280;5455;53.224;6.000;2023-03-11T07:33:59;100947.41;;;-1.44;100.00
10806;BME280;5455;53.224;6.000;2023-03-11T07:36:27;100951.97;;;-1.34;100.00
10806;BME280;5455;53.224;6.000;2023-03-11T07:39:02;100941.41;;;-1.31;100.00
10806;BME280;5455;53.224;6.000;2023-03-11T07:41:32;100949.72;;;-1.17;100.00
10806;BME280;5455;53.224;6.000;2023-03-11T07:44:02;100954.81;;;-1.05;100.00
10806;BME280;5455;53.224;6.000;2023-03-11T07:46:31;100956.38;;;-0.94;100.00
10806;BME280;5455;53.224;6.000;2023-03-11T07:48:59;100960.06;;;-0.80;100.00
10806;BME280;5455;53.224;6.000;2023-03-11T07:51:30;100964.88;;;-0.72;100.00
10806;BME280;5455;53.224;6.000;2023-03-11T07:53:58;100964.53;;;-0.66;100.00
10806;BME280;5455;53.224;6.000;2023-03-11T07:56:31;100966.13;;;-0.60;100.00
10806;BME280;5455;53.224;6.000;2023-03-11T07:58:59;100962.53;;;-0.50;100.00
10806;BME280;5455;53.224;6.000;2023-03-11T08:01:28;100971.97;;;-0.42;100.00
10806;BME280;5455;53.224;6.000;2023-03-11T08:04:04;100967.34;;;-0.42;100.00
10806;BME280;5455;53.224;6.000;2023-03-11T08:06:33;100967.78;;;-0.30;100.00
10806;BME280;5455;53.224;6.000;2023-03-11T08:09:06;100978.53;;;-0.20;100.00
10806;BME280;5455;53.224;6.000;2023-03-11T08:11:35;100987.69;;;-0.11;100.00
10806;BME280;5455;53.224;6.000;2023-03-11T08:14:02;100982.75;;;-0.04;100.00
10806;BME280;5455;53.224;6.000;2023-03-11T08:16:29;100982.63;;;0.07;100.00
10806;BME280;5455;53.224;6.000;2023-03-11T08:18:57;100990.94;;;0.15;100.00
10806;BME280;5455;53.224;6.000;2023-03-11T08:21:26;100986.81;;;0.23;100.00
10806;BME280;5455;53.224;6.000;2023-03-11T08:23:59;100988.91;;;0.31;100.00
10806;BME280;5455;53.224;6.000;2023-03-11T08:26:27;100996.69;;;0.37;100.00
10806;BME280;5455;53.224;6.000;2023-03-11T08:28:54;100999.56;;;0.46;100.00
10806;BME280;5455;53.224;6.000;2023-03-11T08:31:28;101007.63;;;0.56;100.00
10806;BME280;5455;53.224;6.000;2023-03-11T08:34:02;101002.66;;;0.63;100.00
10806;BME280;5455;53.224;6.000;2023-03-11T08:36:30;101006.41;;;0.67;100.00
10806;BME280;5455;53.224;6.000;2023-03-11T08:38:58;101004.72;;;0.71;100.00
10806;BME280;5455;53.224;6.000;2023-03-11T08:41:25;101012.28;;;0.74;100.00
10806;BME280;5455;53.224;6.000;2023-03-11T08:43:52;101008.69;;;0.79;100.00
10806;BME280;5455;53.224;6.000;2023-03-11T08:46:24;101013.50;;;0.87;100.00
10806;BME280;5455;53.224;6.000;2023-03-11T08:48:52;101013.13;;;0.93;100.00
10806;BME280;5455;53.224;6.000;2023-03-11T08:51:19;101017.38;;;0.99;100.00
10806;BME280;5455;53.224;6.000;2023-03-11T08:53:47;101014.84;;;1.08;100.00
10806;BME280;5455;53.224;6.000;2023-03-11T08:56:14;101016.91;;;1.16;100.00
10806;BME280;5455;53.224;6.000;2023-03-11T08:58:41;101027.09;;;1.24;100.00
10806;BME280;5455;53.224;6.000;2023-03-11T09:01:10;101027.34;;;1.28;100.00
10806;BME280;5455;53.224;6.000;2023-03-11T09:03:38;101020.16;;;1.37;100.00
10806;BME280;5455;53.224;6.000;2023-03-11T09:06:08;101015.66;;;1.46;100.00
10806;BME280;5455;53.224;6.000;2023-03-11T09:08:35;101023.69;;;1.56;100.00
10806;BME280;5455;53.224;6.000;2023-03-11T09:11:02;101021.38;;;1.63;100.00
10806;BME280;5455;53.224;6.000;2023-03-11T09:13:31;101027.84;;;1.67;100.00
10806;BME280;5455;53.224;6.000;2023-03-11T09:15:58;101035.31;;;1.75;100.00
10806;BME280;5455;53.224;6.000;2023-03-11T09:18:25;101039.56;;;1.81;100.00
10806;BME280;5455;53.224;6.000;2023-03-11T09:20:54;101030.91;;;1.79;100.00
10806;BME280;5455;53.224;6.000;2023-03-11T09:23:25;101029.75;;;1.85;100.00
10806;BME280;5455;53.224;6.000;2023-03-11T09:25:52;101031.88;;;1.88;100.00
10806;BME280;5455;53.224;6.000;2023-03-11T09:28:19;101025.75;;;1.96;100.00
10806;BME280;5455;53.224;6.000;2023-03-11T09:30:46;101033.03;;;2.01;100.00
10806;BME280;5455;53.224;6.000;2023-03-11T09:33:13;101031.03;;;2.06;100.00
10806;BME280;5455;53.224;6.000;2023-03-11T09:35:40;101031.25;;;2.10;100.00
10806;BME280;5455;53.224;6.000;2023-03-11T09:38:07;101021.56;;;2.17;100.00
10806;BME280;5455;53.224;6.000;2023-03-11T09:40:59;101025.31;;;2.21;100.00
10806;BME280;5455;53.224;6.000;2023-03-11T09:46:25;101023.00;;;2.29;100.00
10806;BME280;5455;53.224;6.000;2023-03-11T09:52:08;101029.41;;;2.51;100.00
10806;BME280;5455;53.224;6.000;2023-03-11T09:54:42;101038.16;;;2.62;100.00
10806;BME280;5455;53.224;6.000;2023-03-11T09:57:15;101033.94;;;2.69;100.00
10806;BME280;5455;53.224;6.000;2023-03-11T09:59:44;101042.81;;;2.75;100.00
10806;BME280;5455;53.224;6.000;2023-03-11T10:02:16;101041.00;;;2.84;100.00
10806;BME280;5455;53.224;6.000;2023-03-11T10:04:53;101039.19;;;2.93;100.00
10806;BME280;5455;53.224;6.000;2023-03-11T10:07:27;101041.31;;;2.96;100.00
10806;BME280;5455;53.224;6.000;2023-03-11T10:09:58;101041.72;;;3.03;100.00
10806;BME280;5455;53.224;6.000;2023-03-11T10:12:51;101048.06;;;3.12;100.00
10806;BME280;5455;53.224;6.000;2023-03-11T10:15:30;101041.91;;;3.20;100.00
10806;BME280;5455;53.224;6.000;2023-03-11T10:18:30;101036.81;;;3.27;100.00
10806;BME280;5455;53.224;6.000;2023-03-11T10:26:15;101042.72;;;3.57;100.00
10806;BME280;5455;53.224;6.000;2023-03-11T10:28:49;101035.72;;;3.64;100.00
10806;BME280;5455;53.224;6.000;2023-03-11T10:31:21;101034.38;;;3.75;100.00
10806;BME280;5455;53.224;6.000;2023-03-11T10:34:03;101037.38;;;3.87;100.00
10806;BME280;5455;53.224;6.000;2023-03-11T10:36:38;101043.75;;;4.05;100.00
10806;BME280;5455;53.224;6.000;2023-03-11T10:39:09;101050.84;;;4.15;100.00
10806;BME280;5455;53.224;6.000;2023-03-11T10:41:49;101045.09;;;4.16;100.00
10806;BME280;5455;53.224;6.000;2023-03-11T10:44:31;101044.97;;;4.21;100.00
10806;BME280;5455;53.224;6.000;2023-03-11T10:47:00;101045.53;;;4.32;100.00
10806;BME280;5455;53.224;6.000;2023-03-11T10:49:28;101049.69;;;4.29;100.00
10806;BME280;5455;53.224;6.000;2023-03-11T10:51:56;101042.47;;;4.33;100.00
10806;BME280;5455;53.224;6.000;2023-03-11T10:54:33;101053.44;;;4.42;100.00
10806;BME280;5455;53.224;6.000;2023-03-11T10:57:08;101056.16;;;4.42;100.00
10806;BME280;5455;53.224;6.000;2023-03-11T10:59:48;101054.38;;;4.37;100.00
10806;BME280;5455;53.224;6.000;2023-03-11T11:07:43;101052.47;;;4.38;100.00
10806;BME280;5455;53.224;6.000;2023-03-11T11:10:27;101054.25;;;4.42;100.00
10806;BME280;5455;53.224;6.000;2023-03-11T11:13:15;101065.88;;;4.57;100.00
10806;BME280;5455;53.224;6.000;2023-03-11T11:15:55;101053.69;;;4.63;100.00
10806;BME280;5455;53.224;6.000;2023-03-11T11:18:35;101057.28;;;4.72;100.00
10806;BME280;5455;53.224;6.000;2023-03-11T11:21:12;101058.75;;;4.78;100.00
10806;BME280;5455;53.224;6.000;2023-03-11T11:23:47;101052.34;;;4.82;100.00
10806;BME280;5455;53.224;6.000;2023-03-11T11:26:16;101053.81;;;4.88;100.00
10806;BME280;5455;53.224;6.000;2023-03-11T11:28:44;101049.94;;;4.81;100.00
10806;BME280;5455;53.224;6.000;2023-03-11T11:31:24;101058.66;;;4.91;100.00
10806;BME280;5455;53.224;6.000;2023-03-11T11:33:54;101058.81;;;4.86;100.00
10806;BME280;5455;53.224;6.000;2023-03-11T11:36:28;101063.94;;;4.88;100.00
10806;BME280;5455;53.224;6.000;2023-03-11T11:38:58;101060.28;;;4.92;100.00
10806;BME280;5455;53.224;6.000;2023-03-11T11:41:26;101061.06;;;4.93;100.00
10806;BME280;5455;53.224;6.000;2023-03-11T11:43:58;101060.94;;;4.98;100.00
10806;BME280;5455;53.224;6.000;2023-03-11T11:46:36;101058.19;;;4.89;100.00
10806;BME280;5455;53.224;6.000;2023-03-11T11:51:57;101056.59;;;4.97;100.00
10806;BME280;5455;53.224;6.000;2023-03-11T11:54:34;101064.19;;;5.09;100.00
10806;BME280;5455;53.224;6.000;2023-03-11T11:57:19;101061.78;;;5.16;100.00
10806;BME280;5455;53.224;6.000;2023-03-11T11:59:47;101062.09;;;5.14;100.00
10806;BME280;5455;53.224;6.000;2023-03-11T12:08:08;101062.13;;;5.23;100.00
10806;BME280;5455;53.224;6.000;2023-03-11T12:16:02;101047.06;;;5.51;100.00
10806;BME280;5455;53.224;6.000;2023-03-11T12:21:50;101059.34;;;5.96;100.00
10806;BME280;5455;53.224;6.000;2023-03-11T12:24:57;101065.75;;;6.26;100.00
10806;BME280;5455;53.224;6.000;2023-03-11T12:26:53;101060.13;;;6.14;100.00
10806;BME280;5455;53.224;6.000;2023-03-11T12:29:28;101060.31;;;6.09;100.00
10806;BME280;5455;53.224;6.000;2023-03-11T12:31:59;101064.34;;;6.03;100.00
10806;BME280;5455;53.224;6.000;2023-03-11T12:34:28;101065.25;;;5.81;100.00
10806;BME280;5455;53.224;6.000;2023-03-11T12:36:59;101065.25;;;5.64;100.00
10806;BME280;5455;53.224;6.000;2023-03-11T12:39:33;101058.63;;;5.39;100.00
10806;BME280;5455;53.224;6.000;2023-03-11T12:42:21;101060.06;;;5.28;100.00
10806;BME280;5455;53.224;6.000;2023-03-11T12:44:51;101053.59;;;5.16;100.00
10806;BME280;5455;53.224;6.000;2023-03-11T12:50:35;101056.47;;;5.11;100.00
10806;BME280;5455;53.224;6.000;2023-03-11T12:52:52;101062.72;;;5.11;100.00
10806;BME280;5455;53.224;6.000;2023-03-11T12:55:28;101062.72;;;5.11;100.00
10806;BME280;5455;53.224;6.000;2023-03-11T13:01:15;101069.38;;;5.36;100.00
10806;BME280;5455;53.224;6.000;2023-03-11T13:03:49;101063.63;;;5.46;100.00
10806;BME280;5455;53.224;6.000;2023-03-11T13:09:15;101069.75;;;5.60;100.00
10806;BME280;5455;53.224;6.000;2023-03-11T13:11:47;101067.34;;;5.59;100.00
10806;BME280;5455;53.224;6.000;2023-03-11T13:14:20;101075.56;;;5.67;100.00
10806;BME280;5455;53.224;6.000;2023-03-11T13:16:49;101076.22;;;5.73;100.00
10806;BME280;5455;53.224;6.000;2023-03-11T13:21:57;101077.47;;;5.58;100.00
10806;BME280;5455;53.224;6.000;2023-03-11T13:40:40;101080.53;;;4.61;100.00
10806;BME280;5455;53.224;6.000;2023-03-11T13:43:14;101068.13;;;4.55;100.00
10806;BME280;5455;53.224;6.000;2023-03-11T13:45:58;101078.00;;;4.73;100.00
10806;BME280;5455;53.224;6.000;2023-03-11T13:48:59;101079.66;;;4.82;100.00
10806;BME280;5455;53.224;6.000;2023-03-11T13:51:44;101082.88;;;4.84;100.00
10806;BME280;5455;53.224;6.000;2023-03-11T13:56:52;101079.56;;;4.96;100.00
10806;BME280;5455;53.224;6.000;2023-03-11T14:01:58;101095.84;;;5.83;100.00
10806;BME280;5455;53.224;6.000;2023-03-11T14:04:28;101088.44;;;5.75;100.00
10806;BME280;5455;53.224;6.000;2023-03-11T14:06:57;101086.16;;;5.69;100.00
10806;BME280;5455;53.224;6.000;2023-03-11T14:09:26;101085.06;;;5.78;100.00
10806;BME280;5455;53.224;6.000;2023-03-11T14:11:54;101095.72;;;6.14;100.00
10806;BME280;5455;53.224;6.000;2023-03-11T14:14:49;101096.66;;;5.84;100.00
10806;BME280;5455;53.224;6.000;2023-03-11T14:17:19;101106.75;;;5.57;100.00
10806;BME280;5455;53.224;6.000;2023-03-11T14:22:36;101111.22;;;5.36;100.00